createdAt,value
2018-10-12T00:00:49.113Z,59.70
2018-10-12T00:03:19.064Z,59.90
2018-10-12T00:05:48.964Z,61.10
2018-10-12T00:08:18.899Z,60.40
2018-10-12T00:10:48.790Z,60.60
2018-10-12T00:13:18.733Z,60.70
2018-10-12T00:15:48.697Z,61.20
2018-10-12T00:18:18.610Z,61.70
2018-10-12T00:20:48.521Z,61.70
2018-10-12T00:23:18.477Z,62.00
2018-10-12T00:25:48.656Z,62.10
2018-10-12T00:28:18.586Z,62.40
2018-10-12T00:30:48.515Z,62.50
2018-10-12T00:33:18.473Z,62.70
2018-10-12T00:35:48.425Z,62.70
2018-10-12T00:38:18.373Z,62.70
2018-10-12T00:40:48.295Z,62.70
2018-10-12T00:43:18.202Z,62.70
2018-10-12T00:45:48.394Z,62.70
2018-10-12T00:48:18.566Z,62.70
2018-10-12T00:50:48.510Z,62.60
2018-10-12T00:53:18.625Z,63.40
2018-10-12T00:55:48.704Z,63.60
2018-10-12T00:58:18.801Z,63.70
2018-10-12T01:00:48.880Z,63.80
2018-10-12T01:03:18.854Z,63.90
2018-10-12T01:05:48.800Z,64.10
2018-10-12T01:08:18.875Z,64.40
2018-10-12T01:10:48.990Z,64.50
2018-10-12T01:13:18.942Z,64.60
2018-10-12T01:15:48.909Z,64.70
2018-10-12T01:18:19.203Z,64.80
2018-10-12T01:20:49.165Z,65.00
2018-10-12T01:23:19.381Z,65.50
2018-10-12T01:25:49.676Z,65.60
2018-10-12T01:28:19.586Z,65.90
2018-10-12T01:30:49.541Z,66.00
2018-10-12T01:33:19.531Z,66.40
2018-10-12T01:35:49.510Z,66.70
2018-10-12T01:38:19.527Z,66.60
2018-10-12T01:40:49.454Z,67.20
2018-10-12T01:43:19.441Z,67.20
2018-10-12T01:45:49.443Z,67.10
2018-10-12T01:48:19.429Z,67.60
2018-10-12T01:50:49.361Z,67.60
2018-10-12T01:53:19.316Z,67.80
2018-10-12T01:55:49.274Z,67.90
2018-10-12T01:58:19.269Z,68.20
2018-10-12T02:00:49.225Z,68.60
2018-10-12T02:03:19.593Z,68.50
2018-10-12T02:05:49.844Z,68.40
2018-10-12T02:08:19.857Z,68.50
2018-10-12T02:10:49.784Z,68.90
2018-10-12T02:13:19.790Z,69.30
2018-10-12T02:15:49.845Z,70.00
2018-10-12T02:18:19.890Z,70.30
2018-10-12T02:20:49.913Z,70.30
2018-10-12T02:23:19.898Z,70.10
2018-10-12T02:25:49.862Z,71.00
2018-10-12T02:28:19.836Z,71.00
2018-10-12T02:30:49.773Z,70.80
2018-10-12T02:33:19.754Z,71.30
2018-10-12T02:35:49.845Z,71.30
2018-10-12T02:38:19.803Z,71.30
2018-10-12T02:40:49.733Z,71.50
2018-10-12T02:43:19.714Z,72.30
2018-10-12T02:45:49.629Z,72.50
2018-10-12T02:48:19.799Z,72.40
2018-10-12T02:50:49.743Z,72.70
2018-10-12T02:53:19.753Z,73.10
2018-10-12T02:55:49.675Z,73.50
2018-10-12T02:58:19.713Z,73.30
2018-10-12T03:00:49.701Z,73.80
2018-10-12T03:03:19.679Z,74.30
2018-10-12T03:05:49.805Z,74.40
2018-10-12T03:08:19.982Z,74.50
2018-10-12T03:10:49.992Z,74.60
2018-10-12T03:13:19.971Z,74.50
2018-10-12T03:15:49.889Z,75.50
2018-10-12T03:18:20.378Z,75.50
2018-10-12T03:20:50.435Z,76.20
2018-10-12T03:23:20.448Z,75.70
2018-10-12T03:25:50.499Z,75.50
2018-10-12T03:28:24.325Z,75.70
2018-10-12T03:30:54.418Z,76.60
2018-10-12T03:33:24.423Z,77.00
2018-10-12T03:35:54.579Z,77.20
2018-10-12T03:38:25.124Z,77.60
2018-10-12T03:40:55.388Z,77.40
2018-10-12T03:43:25.470Z,77.30
2018-10-12T03:45:55.597Z,77.60
2018-10-12T03:48:25.606Z,77.60
2018-10-12T03:50:55.558Z,77.80
2018-10-12T03:53:25.473Z,78.30
2018-10-12T03:55:55.461Z,79.10
2018-10-12T03:58:25.530Z,78.30
2018-10-12T04:00:55.577Z,78.20
2018-10-12T04:03:25.568Z,78.30
2018-10-12T04:05:56.563Z,78.00
2018-10-12T04:08:26.597Z,78.20
2018-10-12T04:10:56.557Z,78.90
2018-10-12T04:13:26.525Z,79.30
2018-10-12T04:15:56.615Z,79.60
2018-10-12T04:18:26.581Z,79.30
2018-10-12T04:20:56.524Z,79.60
2018-10-12T04:23:26.789Z,79.80
2018-10-12T04:25:56.820Z,79.80
2018-10-12T04:28:26.902Z,80.00
2018-10-12T04:30:57.194Z,79.80
2018-10-12T04:33:27.404Z,79.80
2018-10-12T04:35:57.397Z,79.80
2018-10-12T04:38:28.958Z,79.80
2018-10-12T04:41:05.150Z,79.80
2018-10-12T04:43:35.053Z,80.20
2018-10-12T04:46:08.453Z,80.60
2018-10-12T04:48:39.443Z,80.30
2018-10-12T04:51:15.857Z,80.70
2018-10-12T04:53:45.993Z,80.30
2018-10-12T04:56:18.202Z,79.70
2018-10-12T04:58:48.161Z,80.10
2018-10-12T05:01:18.300Z,80.50
2018-10-12T05:03:48.495Z,80.40
2018-10-12T05:06:18.447Z,80.20
2018-10-12T05:08:48.458Z,80.20
2018-10-12T05:11:18.736Z,80.30
2018-10-12T05:13:48.670Z,80.40
2018-10-12T05:16:18.593Z,80.50
2018-10-12T05:18:48.722Z,80.70
2018-10-12T05:21:18.627Z,80.80
2018-10-12T05:23:48.571Z,80.30
2018-10-12T05:26:18.510Z,80.40
2018-10-12T05:28:48.533Z,81.60
2018-10-12T05:31:18.557Z,81.70
2018-10-12T05:33:48.571Z,81.90
2018-10-12T05:36:18.501Z,82.40
2018-10-12T05:38:48.677Z,82.70
2018-10-12T05:41:18.686Z,82.50
2018-10-12T05:43:48.657Z,82.40
2018-10-12T05:46:18.625Z,82.50
2018-10-12T05:49:06.005Z,82.20
2018-10-12T05:51:36.061Z,82.10
2018-10-12T05:54:06.034Z,80.90
2018-10-12T05:56:37.798Z,81.20
2018-10-12T05:59:09.094Z,80.40
2018-10-12T06:01:39.070Z,80.40
2018-10-12T06:04:09.108Z,79.70
2018-10-12T06:06:39.297Z,80.20
2018-10-12T06:09:09.490Z,80.00
2018-10-12T06:11:39.946Z,79.70
2018-10-12T06:14:09.916Z,79.70
2018-10-12T06:16:39.958Z,79.70
2018-10-12T06:19:09.960Z,79.80
2018-10-12T06:21:40.098Z,79.50
2018-10-12T06:24:10.009Z,79.50
2018-10-12T06:26:39.983Z,79.90
2018-10-12T06:29:09.978Z,80.00
2018-10-12T06:31:39.954Z,80.00
2018-10-12T06:34:10.241Z,80.00
2018-10-12T06:36:40.590Z,80.40
2018-10-12T06:39:10.632Z,80.20
2018-10-12T06:41:41.669Z,80.30
2018-10-12T06:44:11.600Z,80.00
2018-10-12T06:46:41.687Z,79.80
2018-10-12T06:49:11.514Z,79.30
2018-10-12T06:51:42.134Z,79.20
2018-10-12T06:54:12.177Z,78.50
2018-10-12T06:56:42.225Z,77.70
2018-10-12T06:59:12.146Z,77.40
2018-10-12T07:01:42.129Z,76.80
2018-10-12T07:04:12.590Z,76.40
2018-10-12T07:06:42.499Z,75.30
2018-10-12T07:09:13.411Z,74.20
2018-10-12T07:11:43.423Z,73.50
2018-10-12T07:14:13.304Z,72.40
2018-10-12T07:16:43.211Z,72.10
2018-10-12T07:19:13.165Z,70.80
2018-10-12T07:21:43.098Z,69.70
2018-10-12T07:24:13.150Z,69.20
2018-10-12T07:26:43.050Z,68.30
2018-10-12T07:29:12.987Z,67.90
2018-10-12T07:31:42.953Z,67.70
2018-10-12T07:34:12.895Z,67.20
2018-10-12T07:36:42.817Z,66.70
2018-10-12T07:39:12.753Z,66.10
2018-10-12T07:41:42.682Z,65.10
2018-10-12T07:44:12.697Z,64.80
2018-10-12T07:46:42.646Z,63.60
2018-10-12T07:49:12.590Z,62.90
2018-10-12T07:51:42.510Z,62.80
2018-10-12T07:54:12.406Z,62.40
2018-10-12T07:56:42.673Z,61.80
2018-10-12T07:59:12.907Z,61.40
2018-10-12T08:01:42.818Z,61.10
2018-10-12T08:04:12.751Z,60.30
2018-10-12T08:06:42.718Z,60.40
2018-10-12T08:09:12.717Z,59.50
2018-10-12T08:11:42.657Z,58.60
2018-10-12T08:14:12.637Z,58.60
2018-10-12T08:16:42.599Z,57.10
2018-10-12T08:19:13.477Z,56.50
2018-10-12T08:21:43.464Z,56.30
2018-10-12T08:24:13.366Z,54.80
2018-10-12T08:26:43.325Z,54.30
2018-10-12T08:29:13.341Z,54.70
2018-10-12T08:31:43.684Z,54.00
2018-10-12T08:34:14.589Z,52.60
2018-10-12T08:36:44.514Z,52.80
2018-10-12T08:39:14.438Z,52.90
2018-10-12T08:41:44.476Z,52.90
2018-10-12T08:44:14.385Z,52.20
2018-10-12T08:46:44.409Z,51.10
2018-10-12T08:49:14.373Z,51.00
2018-10-12T08:51:44.329Z,51.00
2018-10-12T08:54:14.292Z,51.00
2018-10-12T08:56:44.227Z,49.90
2018-10-12T08:59:14.438Z,50.60
2018-10-12T09:01:44.457Z,49.80
2018-10-12T09:04:14.401Z,50.00
2018-10-12T09:06:44.298Z,49.60
2018-10-12T09:09:14.365Z,49.20
2018-10-12T09:11:44.313Z,48.00
2018-10-12T09:14:14.288Z,47.90
2018-10-12T09:16:44.194Z,47.90
2018-10-12T09:19:14.113Z,48.00
2018-10-12T09:21:44.590Z,46.80
2018-10-12T09:24:14.616Z,47.00
2018-10-12T09:26:44.642Z,46.00
2018-10-12T09:29:14.537Z,46.10
2018-10-12T09:31:44.485Z,46.00
2018-10-12T09:34:14.422Z,45.70
2018-10-12T09:36:44.527Z,45.20
2018-10-12T09:39:14.418Z,46.00
2018-10-12T09:41:44.358Z,45.50
2018-10-12T09:44:14.306Z,45.40
2018-10-12T09:46:44.222Z,46.00
2018-10-12T09:49:14.130Z,45.60
2018-10-12T09:51:44.129Z,43.80
2018-10-12T09:54:14.289Z,44.20
2018-10-12T09:56:48.579Z,44.50
2018-10-12T09:59:18.541Z,44.50
2018-10-12T10:01:53.829Z,44.70
2018-10-12T10:04:29.086Z,44.10
2018-10-12T10:07:00.207Z,43.90
2018-10-12T10:09:30.091Z,44.70
2018-10-12T10:12:00.146Z,44.10
2018-10-12T10:14:30.339Z,43.60
2018-10-12T10:17:00.398Z,43.60
2018-10-12T10:19:30.344Z,43.30
2018-10-12T10:22:00.336Z,41.90
2018-10-12T10:24:30.269Z,42.00
2018-10-12T10:27:00.169Z,41.70
2018-10-12T10:29:30.398Z,41.80
2018-10-12T10:32:00.437Z,42.00
2018-10-12T10:34:30.486Z,40.70
2018-10-12T10:37:00.399Z,40.80
2018-10-12T10:39:30.305Z,42.10
2018-10-12T10:42:00.212Z,41.20
2018-10-12T10:44:30.185Z,40.90
2018-10-12T10:47:00.155Z,41.30
2018-10-12T10:49:30.045Z,40.60
2018-10-12T10:52:00.095Z,40.50
2018-10-12T10:54:30.343Z,40.40
2018-10-12T10:57:03.316Z,40.30
2018-10-12T10:59:35.132Z,40.70
2018-10-12T11:02:05.465Z,40.50
2018-10-12T11:04:35.629Z,40.80
2018-10-12T11:07:05.605Z,40.30
2018-10-12T11:09:35.633Z,40.50
2018-10-12T11:12:05.646Z,40.70
2018-10-12T11:14:35.562Z,40.60
2018-10-12T11:17:05.741Z,40.30
2018-10-12T11:19:35.749Z,39.90
2018-10-12T11:22:06.057Z,39.90
2018-10-12T11:24:36.903Z,39.60
2018-10-12T11:27:07.260Z,39.30
2018-10-12T11:29:37.254Z,39.50
2018-10-12T11:32:07.501Z,39.10
2018-10-12T11:34:37.534Z,39.30
2018-10-12T11:37:07.522Z,39.00
2018-10-12T11:39:37.540Z,39.10
2018-10-12T11:42:07.552Z,39.20
2018-10-12T11:44:37.469Z,39.40
2018-10-12T11:47:07.416Z,39.30
2018-10-12T11:49:37.335Z,38.80
2018-10-12T11:52:07.541Z,38.60
2018-10-12T11:54:37.434Z,38.60
2018-10-12T11:57:07.705Z,38.80
2018-10-12T11:59:37.689Z,39.00
2018-10-12T12:02:07.724Z,38.80
2018-10-12T12:04:37.621Z,38.70
2018-10-12T12:07:07.577Z,38.70
2018-10-12T12:09:37.537Z,38.70
2018-10-12T12:12:07.808Z,38.80
2018-10-12T12:14:37.709Z,38.80
2018-10-12T12:17:07.617Z,38.90
2018-10-12T12:19:37.602Z,37.90
2018-10-12T12:22:07.754Z,38.40
2018-10-12T12:24:37.673Z,38.90
2018-10-12T12:27:07.609Z,38.00
2018-10-12T12:29:37.534Z,36.90
2018-10-12T12:32:07.522Z,37.10
2018-10-12T12:34:37.519Z,37.00
2018-10-12T12:37:07.413Z,36.60
2018-10-12T12:39:37.655Z,36.60
2018-10-12T12:42:07.557Z,36.60
2018-10-12T12:44:37.495Z,36.10
2018-10-12T12:47:07.504Z,36.30
2018-10-12T12:49:37.413Z,36.20
2018-10-12T12:52:07.328Z,36.60
2018-10-12T12:54:37.328Z,36.90
2018-10-12T12:57:07.301Z,36.40
2018-10-12T12:59:37.446Z,36.10
2018-10-12T13:02:07.411Z,35.80
2018-10-12T13:04:37.333Z,35.60
2018-10-12T13:07:07.433Z,36.00
2018-10-12T13:09:37.337Z,36.20
2018-10-12T13:12:07.277Z,36.00
2018-10-12T13:14:37.244Z,35.80
2018-10-12T13:17:07.197Z,35.80
2018-10-12T13:19:37.152Z,36.00
2018-10-12T13:22:07.154Z,35.90
2018-10-12T13:24:37.126Z,36.50
2018-10-12T13:27:07.314Z,36.30
2018-10-12T13:29:37.329Z,36.40
2018-10-12T13:32:07.555Z,36.60
2018-10-12T13:34:37.418Z,36.20
2018-10-12T13:37:07.413Z,36.20
2018-10-12T13:39:37.466Z,36.80
2018-10-12T13:42:07.558Z,36.40
2018-10-12T13:44:37.576Z,36.70
2018-10-12T13:47:07.534Z,36.80
2018-10-12T13:49:37.457Z,36.70
2018-10-12T13:52:07.578Z,37.00
2018-10-12T13:54:37.538Z,36.90
2018-10-12T13:57:07.774Z,37.10
2018-10-12T13:59:37.766Z,37.00
2018-10-12T14:02:07.860Z,37.00
2018-10-12T14:04:37.815Z,37.50
2018-10-12T14:07:07.728Z,36.80
2018-10-12T14:09:37.649Z,37.40
2018-10-12T14:12:08.120Z,37.50
2018-10-12T14:14:38.070Z,36.60
2018-10-12T14:17:08.055Z,37.10
2018-10-12T14:19:38.022Z,36.90
2018-10-12T14:22:08.093Z,36.60
2018-10-12T14:24:38.055Z,37.10
2018-10-12T14:27:08.039Z,36.70
2018-10-12T14:29:38.046Z,36.90
2018-10-12T14:32:07.965Z,37.30
2018-10-12T14:34:37.873Z,37.40
2018-10-12T14:37:07.877Z,37.30
2018-10-12T14:39:38.354Z,37.50
2018-10-12T14:42:08.279Z,37.50
2018-10-12T14:44:38.869Z,37.50
2018-10-12T14:47:08.814Z,37.80
2018-10-12T14:49:38.777Z,37.90
2018-10-12T14:52:08.749Z,37.90
2018-10-12T14:54:38.657Z,38.20
2018-10-12T14:57:12.825Z,38.10
2018-10-12T14:59:42.737Z,38.00
2018-10-12T15:02:12.639Z,38.00
2018-10-12T15:04:42.606Z,38.20
2018-10-12T15:07:12.621Z,38.30
2018-10-12T15:09:42.617Z,38.50
2018-10-12T15:12:13.171Z,38.20
2018-10-12T15:15:00.258Z,38.60
2018-10-12T15:17:30.269Z,39.00
2018-10-12T15:20:00.238Z,39.10
2018-10-12T15:22:30.147Z,40.10
2018-10-12T15:25:00.101Z,39.60
2018-10-12T15:27:30.022Z,39.80
2018-10-12T15:29:59.997Z,40.10
2018-10-12T15:32:29.887Z,40.20
2018-10-12T15:34:59.917Z,40.50
2018-10-12T15:37:29.889Z,40.80
2018-10-12T15:40:00.067Z,41.80
2018-10-12T15:42:30.096Z,41.40
2018-10-12T15:45:00.098Z,41.90
2018-10-12T15:47:29.998Z,41.90
2018-10-12T15:49:59.905Z,41.80
2018-10-12T15:52:29.956Z,42.30
2018-10-12T15:55:00.070Z,43.10
2018-10-12T15:57:31.338Z,42.50
2018-10-12T16:00:08.105Z,42.70
2018-10-12T16:02:38.634Z,42.90
2018-10-12T16:05:08.529Z,43.20
2018-10-12T16:07:38.471Z,43.40
2018-10-12T16:10:08.473Z,43.50
2018-10-12T16:12:38.609Z,43.80
2018-10-12T16:15:08.862Z,44.10
2018-10-12T16:17:38.756Z,44.50
2018-10-12T16:20:08.729Z,44.90
2018-10-12T16:22:38.709Z,45.30
2018-10-12T16:25:25.890Z,45.60
2018-10-12T16:27:55.785Z,45.50
2018-10-12T16:30:25.796Z,45.60
2018-10-12T16:32:55.869Z,46.60
2018-10-12T16:35:25.833Z,47.00
2018-10-12T16:37:55.734Z,47.00
2018-10-12T16:40:25.636Z,47.10
2018-10-12T16:42:55.558Z,47.20
2018-10-12T16:45:25.481Z,47.60
2018-10-12T16:47:55.454Z,48.30
2018-10-12T16:50:26.019Z,48.60
2018-10-12T16:52:56.109Z,48.50
2018-10-12T16:55:26.140Z,48.80
2018-10-12T16:57:56.207Z,49.20
2018-10-12T17:00:26.370Z,49.10
2018-10-12T17:02:56.257Z,49.60
2018-10-12T17:05:27.149Z,50.30
2018-10-12T17:07:58.070Z,50.50
2018-10-12T17:10:28.209Z,51.40
2018-10-12T17:12:58.118Z,51.40
2018-10-12T17:15:28.073Z,51.80
2018-10-12T17:17:58.897Z,52.00
2018-10-12T17:20:29.109Z,52.10
2018-10-12T17:22:59.151Z,52.30
2018-10-12T17:25:29.074Z,53.00
2018-10-12T17:27:59.036Z,52.90
2018-10-12T17:30:29.070Z,53.10
2018-10-12T17:32:58.917Z,53.50
2018-10-12T17:35:28.873Z,54.00
2018-10-12T17:37:58.781Z,54.40
2018-10-12T17:40:28.805Z,55.10
2018-10-12T17:42:59.742Z,55.20
2018-10-12T17:45:30.197Z,54.90
2018-10-12T17:48:00.127Z,55.30
2018-10-12T17:50:30.182Z,56.90
2018-10-12T17:53:00.118Z,56.90
2018-10-12T17:55:30.204Z,56.80
2018-10-12T17:58:00.130Z,56.70
2018-10-12T18:00:30.083Z,57.10
2018-10-12T18:03:00.003Z,57.10
2018-10-12T18:05:29.947Z,57.50
2018-10-12T18:07:59.846Z,58.70
2018-10-12T18:10:29.746Z,58.10
2018-10-12T18:12:59.861Z,58.00
2018-10-12T18:15:29.826Z,58.20
2018-10-12T18:17:59.781Z,58.50
2018-10-12T18:20:29.734Z,58.80
2018-10-12T18:22:59.750Z,59.30
2018-10-12T18:25:29.873Z,59.70
2018-10-12T18:27:59.781Z,60.50
2018-10-12T18:30:29.681Z,60.70
2018-10-12T18:32:59.661Z,60.70
2018-10-12T18:35:29.565Z,60.70
2018-10-12T18:38:00.449Z,61.30
2018-10-12T18:40:30.368Z,61.40
2018-10-12T18:43:00.311Z,62.30
2018-10-12T18:45:30.251Z,62.60
2018-10-12T18:48:00.268Z,62.60
2018-10-12T18:50:30.328Z,62.80
2018-10-12T18:53:00.201Z,62.60
2018-10-12T18:55:30.200Z,63.00
2018-10-12T18:58:00.083Z,63.50
2018-10-12T19:00:29.997Z,64.20
2018-10-12T19:02:59.904Z,64.00
2018-10-12T19:05:29.957Z,64.10
2018-10-12T19:07:59.825Z,65.00
2018-10-12T19:10:29.714Z,65.00
2018-10-12T19:12:59.732Z,64.90
2018-10-12T19:15:29.629Z,64.90
2018-10-12T19:17:59.545Z,65.30
2018-10-12T19:20:29.572Z,65.70
2018-10-12T19:22:59.557Z,66.40
2018-10-12T19:25:29.479Z,66.30
2018-10-12T19:27:59.407Z,66.60
2018-10-12T19:30:29.368Z,66.90
2018-10-12T19:32:59.341Z,66.90
2018-10-12T19:35:29.249Z,67.00
2018-10-12T19:37:59.174Z,67.10
2018-10-12T19:40:29.154Z,67.00
2018-10-12T19:42:59.119Z,66.90
2018-10-12T19:45:29.366Z,67.50
2018-10-12T19:47:59.277Z,67.60
2018-10-12T19:50:29.205Z,68.60
2018-10-12T19:52:59.158Z,68.40
2018-10-12T19:55:29.406Z,68.20
2018-10-12T19:57:59.333Z,68.90
2018-10-12T20:00:29.451Z,69.10
2018-10-12T20:02:59.424Z,69.10
2018-10-12T20:05:29.430Z,69.10
2018-10-12T20:07:59.353Z,69.10
2018-10-12T20:10:29.475Z,69.10
2018-10-12T20:12:59.345Z,69.10
2018-10-12T20:15:29.337Z,69.00
2018-10-12T20:17:59.293Z,69.00
2018-10-12T20:20:29.414Z,69.60
2018-10-12T20:22:59.611Z,70.10
2018-10-12T20:25:29.590Z,70.30
2018-10-12T20:27:59.494Z,70.50
2018-10-12T20:30:29.435Z,70.10
2018-10-12T20:32:59.349Z,70.00
2018-10-12T20:35:29.372Z,70.40
2018-10-12T20:37:59.261Z,70.20
2018-10-12T20:40:29.245Z,70.70
2018-10-12T20:42:59.218Z,70.90
2018-10-12T20:45:29.344Z,70.70
2018-10-12T20:47:59.459Z,70.80
2018-10-12T20:50:29.810Z,70.90
2018-10-12T20:52:59.781Z,70.90
2018-10-12T20:55:29.744Z,71.00
2018-10-12T20:57:59.666Z,71.20
2018-10-12T21:00:29.711Z,70.90
2018-10-12T21:02:59.629Z,71.10
2018-10-12T21:05:29.653Z,70.90
2018-10-12T21:07:59.570Z,70.70
2018-10-12T21:10:29.531Z,70.90
2018-10-12T21:12:59.497Z,71.10
2018-10-12T21:15:29.422Z,71.20
2018-10-12T21:17:59.890Z,71.80
2018-10-12T21:20:29.709Z,72.00
2018-10-12T21:22:59.750Z,71.90
2018-10-12T21:25:29.689Z,72.50
2018-10-12T21:27:59.610Z,71.90
2018-10-12T21:30:29.521Z,72.40
2018-10-12T21:32:59.578Z,72.10
2018-10-12T21:35:29.574Z,72.40
2018-10-12T21:37:59.973Z,72.60
2018-10-12T21:40:30.157Z,72.70
2018-10-12T21:43:00.153Z,72.30
2018-10-12T21:45:30.255Z,72.80
2018-10-12T21:48:00.178Z,73.00
2018-10-12T21:50:30.156Z,72.90
2018-10-12T21:53:00.038Z,72.80
2018-10-12T21:55:30.121Z,72.90
2018-10-12T21:58:00.033Z,72.90
2018-10-12T22:00:30.301Z,73.50
2018-10-12T22:03:00.260Z,72.80
2018-10-12T22:05:30.257Z,73.40
2018-10-12T22:08:00.289Z,73.90
2018-10-12T22:10:30.216Z,74.00
2018-10-12T22:13:00.161Z,74.00
2018-10-12T22:15:30.074Z,73.90
2018-10-12T22:18:00.124Z,73.60
2018-10-12T22:20:30.318Z,73.20
2018-10-12T22:23:00.254Z,73.30
2018-10-12T22:25:30.371Z,73.20
2018-10-12T22:28:00.338Z,73.80
2018-10-12T22:30:30.246Z,73.60
2018-10-12T22:33:00.363Z,73.50
2018-10-12T22:35:30.594Z,73.50
2018-10-12T22:38:00.520Z,73.90
2018-10-12T22:40:30.514Z,74.10
2018-10-12T22:43:00.462Z,73.80
2018-10-12T22:45:30.417Z,74.10
2018-10-12T22:48:00.586Z,74.40
2018-10-12T22:50:30.513Z,74.50
2018-10-12T22:53:00.462Z,74.50
2018-10-12T22:55:30.385Z,74.60
2018-10-12T22:58:00.473Z,74.60
2018-10-12T23:00:32.082Z,74.70
2018-10-12T23:03:02.394Z,75.30
2018-10-12T23:05:32.714Z,75.00
2018-10-12T23:08:02.654Z,75.20
2018-10-12T23:10:32.733Z,75.00
2018-10-12T23:13:02.627Z,75.10
2018-10-12T23:15:32.589Z,74.70
2018-10-12T23:18:02.664Z,75.70
2018-10-12T23:20:32.684Z,75.60
2018-10-12T23:23:02.687Z,75.70
2018-10-12T23:25:32.590Z,76.10
2018-10-12T23:28:02.516Z,76.00
2018-10-12T23:30:32.462Z,75.90
2018-10-12T23:33:19.762Z,75.90
2018-10-12T23:35:49.706Z,76.80
2018-10-12T23:38:19.626Z,76.80
2018-10-12T23:40:49.626Z,76.80
2018-10-12T23:43:19.555Z,76.70
2018-10-12T23:45:49.469Z,76.70
2018-10-12T23:48:19.465Z,76.40
2018-10-12T23:50:49.405Z,76.70
2018-10-12T23:53:19.389Z,76.70
2018-10-12T23:55:49.623Z,76.70
2018-10-12T23:58:19.549Z,76.60
